createdAt,value
2023-02-02T00:01:22.229Z,0.90
2023-02-02T00:03:53.084Z,0.80
2023-02-02T00:06:20.984Z,0.90
2023-02-02T00:08:48.087Z,0.90
2023-02-02T00:11:15.689Z,1.13
2023-02-02T00:13:43.005Z,0.60
2023-02-02T00:16:33.418Z,0.77
2023-02-02T00:19:01.920Z,0.77
2023-02-02T00:21:29.174Z,0.60
2023-02-02T00:23:56.249Z,0.90
2023-02-02T00:26:23.537Z,1.03
2023-02-02T00:28:50.645Z,0.60
2023-02-02T00:31:17.788Z,0.90
2023-02-02T00:33:48.127Z,1.00
2023-02-02T00:36:15.714Z,0.70
2023-02-02T00:38:42.785Z,1.13
2023-02-02T00:41:09.910Z,0.53
2023-02-02T00:43:37.008Z,0.87
2023-02-02T00:46:04.224Z,1.00
2023-02-02T00:48:31.299Z,0.67
2023-02-02T00:50:58.385Z,0.90
2023-02-02T00:53:25.507Z,0.80
2023-02-02T00:55:52.590Z,0.90
2023-02-02T00:58:19.648Z,0.70
2023-02-02T01:00:46.831Z,0.83
2023-02-02T01:03:13.885Z,0.70
2023-02-02T01:05:41.161Z,0.80
2023-02-02T01:08:08.593Z,1.10
2023-02-02T01:10:35.697Z,0.73
2023-02-02T01:13:03.115Z,1.13
2023-02-02T01:15:30.562Z,1.10
2023-02-02T01:17:57.972Z,1.10
2023-02-02T01:20:25.738Z,1.03
2023-02-02T01:22:52.902Z,1.03
2023-02-02T01:25:20.284Z,1.10
2023-02-02T01:27:47.379Z,0.73
2023-02-02T01:30:14.610Z,1.00
2023-02-02T01:32:41.689Z,0.90
2023-02-02T01:35:10.209Z,0.97
2023-02-02T01:37:37.445Z,1.20
2023-02-02T01:40:04.719Z,1.00
2023-02-02T01:42:31.766Z,0.87
2023-02-02T01:45:01.563Z,1.03
2023-02-02T01:47:31.206Z,0.80
2023-02-02T01:49:58.375Z,0.63
2023-02-02T01:52:26.781Z,1.20
2023-02-02T01:54:56.936Z,0.90
2023-02-02T01:57:30.868Z,0.77
2023-02-02T01:59:59.727Z,1.10
2023-02-02T02:02:28.325Z,1.00
2023-02-02T02:04:55.976Z,1.20
2023-02-02T02:07:23.311Z,0.90
2023-02-02T02:09:50.355Z,1.20
2023-02-02T02:12:17.640Z,0.80
2023-02-02T02:15:05.184Z,0.80
2023-02-02T02:17:41.100Z,1.00
2023-02-02T02:20:45.645Z,0.97
2023-02-02T02:23:50.001Z,1.00
2023-02-02T02:26:35.871Z,0.60
2023-02-02T02:29:18.242Z,0.80
2023-02-02T02:32:04.006Z,0.83
2023-02-02T02:34:31.044Z,0.83
2023-02-02T02:37:24.292Z,0.70
2023-02-02T02:39:55.069Z,1.10
2023-02-02T02:42:24.315Z,0.70
2023-02-02T02:44:51.918Z,0.87
2023-02-02T02:47:20.019Z,0.87
2023-02-02T02:49:47.840Z,0.80
2023-02-02T02:52:15.056Z,1.07
2023-02-02T02:54:45.556Z,0.87
2023-02-02T02:57:31.459Z,0.70
2023-02-02T03:00:16.841Z,0.50
2023-02-02T03:02:49.862Z,0.80
2023-02-02T03:05:19.996Z,1.00
2023-02-02T03:07:52.606Z,1.10
2023-02-02T03:10:22.309Z,1.03
2023-02-02T03:12:50.922Z,0.90
2023-02-02T03:15:18.521Z,1.37
2023-02-02T03:17:47.040Z,0.97
2023-02-02T03:20:14.267Z,0.80
2023-02-02T03:22:41.338Z,0.63
2023-02-02T03:25:11.176Z,0.90
2023-02-02T03:27:39.096Z,1.00
2023-02-02T03:30:07.967Z,0.80
2023-02-02T03:32:35.124Z,1.00
2023-02-02T03:35:02.311Z,0.90
2023-02-02T03:37:29.466Z,0.47
2023-02-02T03:39:56.516Z,0.80
2023-02-02T03:42:23.651Z,0.67
2023-02-02T03:44:50.701Z,0.80
2023-02-02T03:47:17.806Z,0.77
2023-02-02T03:49:44.866Z,0.73
2023-02-02T03:52:11.934Z,0.90
2023-02-02T03:54:39.006Z,0.50
2023-02-02T03:57:06.114Z,0.73
2023-02-02T03:59:33.206Z,0.70
2023-02-02T04:02:00.277Z,0.77
2023-02-02T04:04:27.363Z,0.80
2023-02-02T04:06:54.510Z,0.90
2023-02-02T04:09:21.618Z,0.70
2023-02-02T04:11:48.752Z,0.90
2023-02-02T04:14:15.860Z,0.77
2023-02-02T04:16:42.912Z,0.57
2023-02-02T04:19:10.176Z,0.80
2023-02-02T04:21:37.278Z,0.70
2023-02-02T04:24:04.398Z,1.10
2023-02-02T04:26:31.503Z,1.10
2023-02-02T04:28:58.785Z,1.20
2023-02-02T04:31:27.345Z,0.60
2023-02-02T04:33:54.439Z,1.30
2023-02-02T04:36:21.500Z,1.00
2023-02-02T04:38:51.965Z,1.00
2023-02-02T04:41:19.120Z,0.83
2023-02-02T04:43:46.473Z,1.13
2023-02-02T04:46:13.998Z,0.63
2023-02-02T04:48:42.001Z,1.00
2023-02-02T04:51:10.803Z,0.70
2023-02-02T04:53:38.066Z,0.97
2023-02-02T04:56:06.373Z,0.93
2023-02-02T04:58:33.572Z,0.93
2023-02-02T05:01:00.837Z,0.63
2023-02-02T05:03:28.000Z,0.90
2023-02-02T05:06:02.487Z,0.80
2023-02-02T05:08:29.908Z,0.93
2023-02-02T05:10:56.988Z,1.00
2023-02-02T05:13:24.112Z,0.80
2023-02-02T05:15:51.184Z,1.00
2023-02-02T05:18:18.267Z,0.90
2023-02-02T05:20:45.407Z,0.90
2023-02-02T05:23:12.437Z,0.87
2023-02-02T05:25:39.512Z,0.80
2023-02-02T05:28:06.590Z,1.10
2023-02-02T05:30:33.881Z,1.10
2023-02-02T05:33:01.006Z,1.00
2023-02-02T05:35:28.105Z,0.90
2023-02-02T05:37:55.203Z,0.90
2023-02-02T05:40:23.076Z,1.00
2023-02-02T05:42:50.185Z,1.20
2023-02-02T05:45:17.400Z,0.90
2023-02-02T05:47:44.538Z,0.90
2023-02-02T05:50:11.620Z,0.97
2023-02-02T05:52:39.911Z,1.10
2023-02-02T05:55:07.559Z,1.30
2023-02-02T05:57:34.605Z,1.23
2023-02-02T06:00:01.705Z,1.23
2023-02-02T06:02:28.775Z,1.03
2023-02-02T06:04:55.822Z,0.80
2023-02-02T06:07:22.911Z,0.80
2023-02-02T06:09:49.981Z,1.00
2023-02-02T06:12:18.927Z,0.80
2023-02-02T06:14:46.163Z,1.17
2023-02-02T06:17:13.209Z,1.30
2023-02-02T06:19:40.275Z,1.00
2023-02-02T06:22:07.454Z,1.20
2023-02-02T06:24:34.531Z,1.13
2023-02-02T06:27:01.593Z,0.87
2023-02-02T06:29:28.734Z,1.30
2023-02-02T06:31:55.943Z,1.10
2023-02-02T06:34:23.162Z,1.30
2023-02-02T06:36:50.198Z,1.20
2023-02-02T06:39:17.384Z,1.40
2023-02-02T06:41:46.565Z,1.10
2023-02-02T06:44:15.316Z,0.90
2023-02-02T06:46:42.998Z,1.10
2023-02-02T06:49:10.037Z,1.40
2023-02-02T06:51:37.161Z,1.37
2023-02-02T06:54:04.348Z,0.93
2023-02-02T06:56:31.462Z,1.40
2023-02-02T06:58:58.518Z,1.17
2023-02-02T07:01:25.699Z,1.10
2023-02-02T07:03:53.485Z,1.27
2023-02-02T07:06:22.342Z,1.20
2023-02-02T07:09:01.944Z,1.40
2023-02-02T07:11:29.938Z,1.20
2023-02-02T07:13:57.060Z,1.30
2023-02-02T07:16:24.230Z,1.30
2023-02-02T07:18:51.342Z,1.40
2023-02-02T07:21:19.825Z,1.27
2023-02-02T07:23:47.160Z,1.50
2023-02-02T07:26:14.959Z,1.57
2023-02-02T07:28:42.315Z,1.40
2023-02-02T07:31:17.441Z,1.50
2023-02-02T07:33:45.809Z,1.43
2023-02-02T07:36:14.291Z,1.20
2023-02-02T07:38:41.363Z,1.47
2023-02-02T07:41:08.470Z,1.53
2023-02-02T07:43:35.623Z,1.20
2023-02-02T07:46:03.445Z,0.97
2023-02-02T07:48:31.327Z,1.47
2023-02-02T07:51:02.235Z,1.27
2023-02-02T07:53:29.704Z,1.53
2023-02-02T07:56:09.915Z,1.60
2023-02-02T07:58:37.254Z,1.13
2023-02-02T08:01:05.466Z,1.50
2023-02-02T08:03:32.891Z,1.10
2023-02-02T08:06:00.178Z,1.17
2023-02-02T08:08:27.615Z,1.03
2023-02-02T08:10:55.102Z,1.20
2023-02-02T08:13:22.383Z,1.00
2023-02-02T08:15:49.562Z,1.17
2023-02-02T08:18:17.002Z,1.33
2023-02-02T08:20:44.123Z,1.30
2023-02-02T08:23:15.619Z,1.20
2023-02-02T08:25:43.051Z,1.33
2023-02-02T08:28:10.081Z,1.37
2023-02-02T08:30:37.228Z,1.30
2023-02-02T08:33:04.329Z,1.20
2023-02-02T08:35:31.412Z,1.30
2023-02-02T08:37:58.491Z,1.87
2023-02-02T08:40:25.702Z,1.80
2023-02-02T08:42:55.932Z,1.57
2023-02-02T08:46:02.462Z,1.47
2023-02-02T08:48:12.590Z,1.40
2023-02-02T08:50:40.111Z,1.80
2023-02-02T08:53:07.191Z,1.73
2023-02-02T08:55:34.267Z,1.47
2023-02-02T08:58:01.321Z,1.50
2023-02-02T09:00:28.425Z,1.13
2023-02-02T09:02:55.483Z,1.17
2023-02-02T09:05:22.677Z,1.40
2023-02-02T09:07:49.829Z,1.50
2023-02-02T09:10:17.250Z,1.47
2023-02-02T09:12:44.309Z,1.77
2023-02-02T09:15:12.736Z,1.67
2023-02-02T09:17:39.830Z,1.43
2023-02-02T09:20:07.354Z,1.20
2023-02-02T09:22:34.530Z,1.27
2023-02-02T09:25:01.620Z,1.63
2023-02-02T09:27:28.688Z,1.50
2023-02-02T09:29:56.380Z,2.10
2023-02-02T09:32:23.430Z,1.47
2023-02-02T09:34:50.513Z,1.43
2023-02-02T09:37:17.629Z,1.53
2023-02-02T09:39:44.667Z,1.33
2023-02-02T09:42:29.204Z,1.03
2023-02-02T09:44:59.560Z,1.83
2023-02-02T09:47:50.061Z,1.60
2023-02-02T09:50:17.162Z,1.90
2023-02-02T09:52:46.703Z,2.00
2023-02-02T09:55:13.742Z,2.30
2023-02-02T09:57:44.703Z,2.20
2023-02-02T10:00:27.436Z,1.83
2023-02-02T10:02:57.779Z,1.77
2023-02-02T10:05:28.826Z,1.50
2023-02-02T10:07:59.043Z,1.67
2023-02-02T10:10:33.060Z,1.70
2023-02-02T10:13:04.710Z,2.07
2023-02-02T10:15:40.212Z,1.57
2023-02-02T10:18:07.305Z,1.60
2023-02-02T10:20:34.394Z,1.57
2023-02-02T10:23:06.857Z,1.50
2023-02-02T10:25:34.614Z,1.70
2023-02-02T10:28:06.978Z,1.40
2023-02-02T10:30:39.399Z,1.70
2023-02-02T10:33:07.451Z,1.50
2023-02-02T10:35:37.564Z,1.83
2023-02-02T10:38:16.822Z,2.27
2023-02-02T10:40:59.130Z,1.77
2023-02-02T10:43:47.400Z,1.80
2023-02-02T10:46:18.040Z,2.23
2023-02-02T10:48:46.996Z,2.20
2023-02-02T10:51:29.959Z,1.87
2023-02-02T10:54:00.816Z,1.47
2023-02-02T10:56:38.248Z,2.10
2023-02-02T10:59:12.324Z,1.40
2023-02-02T11:01:39.391Z,1.60
2023-02-02T11:04:25.447Z,1.40
2023-02-02T11:06:52.584Z,1.70
2023-02-02T11:09:21.804Z,1.90
2023-02-02T11:11:55.106Z,1.50
2023-02-02T11:14:45.209Z,1.83
2023-02-02T11:17:20.297Z,1.33
2023-02-02T11:19:47.454Z,1.40
2023-02-02T11:22:25.649Z,1.53
2023-02-02T11:24:54.072Z,2.80
2023-02-02T11:27:21.203Z,2.90
2023-02-02T11:30:01.619Z,1.50
2023-02-02T11:32:32.495Z,1.80
2023-02-02T11:35:05.341Z,1.30
2023-02-02T11:37:33.405Z,1.67
2023-02-02T11:40:19.379Z,1.80
2023-02-02T11:42:47.734Z,1.30
2023-02-02T11:45:19.197Z,1.60
2023-02-02T11:47:46.811Z,1.63
2023-02-02T11:50:27.983Z,1.50
2023-02-02T11:52:55.254Z,1.50
2023-02-02T11:55:26.528Z,1.40
2023-02-02T11:58:29.216Z,1.63
2023-02-02T12:01:00.651Z,1.70
2023-02-02T12:03:38.902Z,1.40
2023-02-02T12:06:22.755Z,1.57
2023-02-02T12:08:50.488Z,1.37
2023-02-02T12:11:25.473Z,1.67
2023-02-02T12:13:58.665Z,1.77
2023-02-02T12:16:26.203Z,1.63
2023-02-02T12:18:53.569Z,1.77
2023-02-02T12:21:49.952Z,1.37
2023-02-02T12:24:19.800Z,1.60
2023-02-02T12:26:50.991Z,1.40
2023-02-02T12:29:36.958Z,1.13
2023-02-02T12:32:27.278Z,1.60
2023-02-02T12:35:21.394Z,1.23
2023-02-02T12:38:04.860Z,1.40
2023-02-02T12:40:50.519Z,1.80
2023-02-02T12:43:34.502Z,1.80
2023-02-02T12:46:16.954Z,1.73
2023-02-02T12:48:47.194Z,1.50
2023-02-02T12:51:22.405Z,1.83
2023-02-02T12:54:34.798Z,1.40
2023-02-02T12:57:00.125Z,1.43
2023-02-02T12:59:36.435Z,1.47
2023-02-02T13:02:14.677Z,1.40
2023-02-02T13:05:00.559Z,1.13
2023-02-02T13:07:36.874Z,1.23
2023-02-02T13:10:13.604Z,1.10
2023-02-02T13:12:43.593Z,0.90
2023-02-02T13:15:13.683Z,1.23
2023-02-02T13:17:46.259Z,1.13
2023-02-02T13:20:23.617Z,1.20
2023-02-02T13:22:52.646Z,1.40
2023-02-02T13:25:29.271Z,1.30
2023-02-02T13:27:57.266Z,1.50
2023-02-02T13:30:40.422Z,1.30
2023-02-02T13:33:19.004Z,1.03
2023-02-02T13:35:54.869Z,1.87
2023-02-02T13:38:27.067Z,1.20
2023-02-02T13:40:56.054Z,1.37
2023-02-02T13:43:33.598Z,1.17
2023-02-02T13:46:10.057Z,1.00
2023-02-02T13:48:52.472Z,1.03
2023-02-02T13:51:39.137Z,1.13
2023-02-02T13:54:24.892Z,1.40
2023-02-02T13:56:55.019Z,0.90
2023-02-02T13:59:48.936Z,0.80
2023-02-02T14:02:42.341Z,1.00
2023-02-02T14:05:18.256Z,0.70
2023-02-02T14:07:47.123Z,1.03
2023-02-02T14:10:22.760Z,0.93
2023-02-02T14:12:49.968Z,1.00
2023-02-02T14:15:17.094Z,0.87
2023-02-02T14:17:44.159Z,1.10
2023-02-02T14:20:30.051Z,0.83
2023-02-02T14:22:57.192Z,1.00
2023-02-02T14:25:33.365Z,1.30
2023-02-02T14:28:01.703Z,1.20
2023-02-02T14:30:33.740Z,1.10
2023-02-02T14:33:19.303Z,1.27
2023-02-02T14:35:46.335Z,1.40
2023-02-02T14:38:26.812Z,1.03
2023-02-02T14:40:53.843Z,1.30
2023-02-02T14:43:45.514Z,1.63
2023-02-02T14:46:15.754Z,1.40
2023-02-02T14:49:06.996Z,1.07
2023-02-02T14:51:35.196Z,1.30
2023-02-02T14:54:03.784Z,1.10
2023-02-02T14:56:39.708Z,1.00
2023-02-02T14:59:07.669Z,1.20
2023-02-02T15:01:36.279Z,1.63
2023-02-02T15:04:21.868Z,1.20
2023-02-02T15:06:51.089Z,1.10
2023-02-02T15:09:23.764Z,1.07
2023-02-02T15:12:02.862Z,1.33
2023-02-02T15:14:29.914Z,1.40
2023-02-02T15:16:57.152Z,1.33
2023-02-02T15:19:28.470Z,1.10
2023-02-02T15:21:57.846Z,1.43
2023-02-02T15:24:26.989Z,1.33
2023-02-02T15:26:54.790Z,1.43
2023-02-02T15:29:42.677Z,1.93
2023-02-02T15:32:14.587Z,1.10
2023-02-02T15:34:43.389Z,1.50
2023-02-02T15:37:15.294Z,1.63
2023-02-02T15:39:43.611Z,1.90
2023-02-02T15:42:43.042Z,1.40
2023-02-02T15:45:31.268Z,1.43
2023-02-02T15:47:59.280Z,1.40
2023-02-02T15:50:27.063Z,1.40
2023-02-02T15:52:55.305Z,1.27
2023-02-02T15:55:25.745Z,1.60
2023-02-02T15:57:54.358Z,1.33
2023-02-02T16:00:29.278Z,1.70
2023-02-02T16:03:12.982Z,1.40
2023-02-02T16:05:43.111Z,1.40
2023-02-02T16:08:16.476Z,1.60
2023-02-02T16:10:46.320Z,1.03
2023-02-02T16:13:24.634Z,1.40
2023-02-02T16:15:56.074Z,0.97
2023-02-02T16:18:23.207Z,1.63
2023-02-02T16:20:50.386Z,1.50
2023-02-02T16:23:20.210Z,1.40
2023-02-02T16:25:49.255Z,1.30
2023-02-02T16:28:18.216Z,1.00
2023-02-02T16:30:45.934Z,1.00
2023-02-02T16:33:42.539Z,0.90
2023-02-02T16:36:25.139Z,0.63
2023-02-02T16:38:53.243Z,1.13
2023-02-02T16:41:34.422Z,1.10
2023-02-02T16:44:20.306Z,1.20
2023-02-02T16:46:49.203Z,1.23
2023-02-02T16:49:22.882Z,1.03
2023-02-02T16:52:08.112Z,1.33
2023-02-02T16:54:35.196Z,1.00
2023-02-02T16:57:03.135Z,1.47
2023-02-02T16:59:35.396Z,1.27
2023-02-02T17:02:16.977Z,1.20
2023-02-02T17:04:47.338Z,1.53
2023-02-02T17:07:15.953Z,1.60
2023-02-02T17:09:44.254Z,1.60
2023-02-02T17:12:32.226Z,1.80
2023-02-02T17:15:05.066Z,1.63
2023-02-02T17:17:32.144Z,1.67
2023-02-02T17:19:59.288Z,1.47
2023-02-02T17:22:27.785Z,1.40
2023-02-02T17:24:54.900Z,1.83
2023-02-02T17:27:34.071Z,2.00
2023-02-02T17:30:02.267Z,1.73
2023-02-02T17:32:29.354Z,2.10
2023-02-02T17:34:56.620Z,2.70
2023-02-02T17:37:23.820Z,3.23
2023-02-02T17:39:50.883Z,3.10
2023-02-02T17:42:27.088Z,3.13
2023-02-02T17:44:54.125Z,3.23
2023-02-02T17:47:21.230Z,3.00
2023-02-02T17:49:48.291Z,3.00
2023-02-02T17:52:15.418Z,1.43
2023-02-02T17:54:42.485Z,1.43
2023-02-02T17:57:09.567Z,1.73
2023-02-02T17:59:36.651Z,1.80
2023-02-02T18:02:03.825Z,1.50
2023-02-02T18:04:30.864Z,1.47
2023-02-02T18:06:57.985Z,1.40
2023-02-02T18:09:25.122Z,1.83
2023-02-02T18:11:52.563Z,1.67
2023-02-02T18:14:19.629Z,1.90
2023-02-02T18:16:46.667Z,2.10
2023-02-02T18:19:13.744Z,2.10
2023-02-02T18:21:41.133Z,2.53
2023-02-02T18:24:08.490Z,3.10
2023-02-02T18:26:35.689Z,3.07
2023-02-02T18:29:02.875Z,3.07
2023-02-02T18:31:30.191Z,2.70
2023-02-02T18:33:57.464Z,3.13
2023-02-02T18:36:24.991Z,3.30
2023-02-02T18:38:53.771Z,4.30
2023-02-02T18:41:23.713Z,5.80
2023-02-02T18:43:52.818Z,4.40
2023-02-02T18:46:20.078Z,4.30
2023-02-02T18:48:47.167Z,4.20
2023-02-02T18:51:16.089Z,3.80
2023-02-02T18:53:47.045Z,4.40
2023-02-02T18:56:15.209Z,3.90
2023-02-02T18:58:42.376Z,4.00
2023-02-02T19:01:10.354Z,3.70
2023-02-02T19:03:37.602Z,3.37
2023-02-02T19:06:23.881Z,3.30
2023-02-02T19:08:51.324Z,3.47
2023-02-02T19:11:19.631Z,3.23
2023-02-02T19:13:47.106Z,3.37
2023-02-02T19:16:23.568Z,3.17
2023-02-02T19:18:50.931Z,3.47
2023-02-02T19:21:18.044Z,4.07
2023-02-02T19:23:46.104Z,3.70
2023-02-02T19:26:32.521Z,3.60
2023-02-02T19:29:03.435Z,3.63
2023-02-02T19:31:30.612Z,3.37
2023-02-02T19:33:58.001Z,3.40
2023-02-02T19:36:27.784Z,3.33
2023-02-02T19:39:02.037Z,3.30
2023-02-02T19:41:30.171Z,3.47
2023-02-02T19:43:59.591Z,3.30
2023-02-02T19:46:27.579Z,3.27
2023-02-02T19:49:00.376Z,3.50
2023-02-02T19:51:41.878Z,3.00
2023-02-02T19:54:32.229Z,3.60
2023-02-02T19:57:00.954Z,3.50
2023-02-02T19:59:33.271Z,2.90
2023-02-02T20:02:09.321Z,3.50
2023-02-02T20:04:38.153Z,3.03
2023-02-02T20:07:10.384Z,2.80
2023-02-02T20:09:37.486Z,3.23
2023-02-02T20:12:18.396Z,3.20
2023-02-02T20:14:45.471Z,3.60
2023-02-02T20:17:17.023Z,3.27
2023-02-02T20:19:46.057Z,3.53
2023-02-02T20:22:28.483Z,3.90
2023-02-02T20:24:57.221Z,3.23
2023-02-02T20:27:26.536Z,3.20
2023-02-02T20:29:54.300Z,2.80
2023-02-02T20:32:26.579Z,2.93
2023-02-02T20:34:55.081Z,2.50
2023-02-02T20:37:25.166Z,2.50
2023-02-02T20:39:53.807Z,2.30
2023-02-02T20:42:20.962Z,2.47
2023-02-02T20:44:48.044Z,2.17
2023-02-02T20:47:15.197Z,2.77
2023-02-02T20:49:42.301Z,2.50
2023-02-02T20:52:11.101Z,2.10
2023-02-02T20:54:39.267Z,2.13
2023-02-02T20:57:06.472Z,2.07
2023-02-02T20:59:33.551Z,2.10
2023-02-02T21:02:00.743Z,2.13
2023-02-02T21:04:27.870Z,1.93
2023-02-02T21:06:55.412Z,2.43
2023-02-02T21:09:22.507Z,2.23
2023-02-02T21:11:49.568Z,2.13
2023-02-02T21:14:16.724Z,2.07
2023-02-02T21:16:44.110Z,2.20
2023-02-02T21:19:11.207Z,2.53
2023-02-02T21:21:38.377Z,2.40
2023-02-02T21:24:05.896Z,2.10
2023-02-02T21:26:32.949Z,2.30
2023-02-02T21:29:00.140Z,2.17
2023-02-02T21:31:27.394Z,2.10
2023-02-02T21:33:54.636Z,2.40
2023-02-02T21:36:29.135Z,2.70
2023-02-02T21:39:21.516Z,2.40
2023-02-02T21:41:49.627Z,2.47
2023-02-02T21:44:17.955Z,2.43
2023-02-02T21:46:45.889Z,2.50
2023-02-02T21:49:19.619Z,2.23
2023-02-02T21:51:46.693Z,2.43
2023-02-02T21:54:21.168Z,2.30
2023-02-02T21:56:48.332Z,2.30
2023-02-02T21:59:19.567Z,2.40
2023-02-02T22:01:48.293Z,2.40
2023-02-02T22:04:15.450Z,2.40
2023-02-02T22:06:45.875Z,2.87
2023-02-02T22:09:12.943Z,2.47
2023-02-02T22:11:44.633Z,2.10
2023-02-02T22:14:18.552Z,2.20
2023-02-02T22:16:48.706Z,2.20
2023-02-02T22:19:24.634Z,2.03
2023-02-02T22:21:51.723Z,1.73
2023-02-02T22:24:18.775Z,1.97
2023-02-02T22:26:47.591Z,2.10
2023-02-02T22:29:17.125Z,1.73
2023-02-02T22:31:44.492Z,2.20
2023-02-02T22:34:11.593Z,2.07
2023-02-02T22:36:38.653Z,1.70
2023-02-02T22:39:05.707Z,2.17
2023-02-02T22:41:32.873Z,2.10
2023-02-02T22:43:59.983Z,1.87
2023-02-02T22:46:27.122Z,2.30
2023-02-02T22:48:54.229Z,2.00
2023-02-02T22:51:21.378Z,1.90
2023-02-02T22:53:48.458Z,2.00
2023-02-02T22:56:15.574Z,2.20
2023-02-02T22:58:42.648Z,2.33
2023-02-02T23:01:11.600Z,2.20
2023-02-02T23:03:38.681Z,2.37
2023-02-02T23:06:05.754Z,2.20
2023-02-02T23:08:33.932Z,2.40
2023-02-02T23:11:00.988Z,1.87
2023-02-02T23:13:28.080Z,1.47
2023-02-02T23:15:56.632Z,2.37
2023-02-02T23:18:23.727Z,1.90
2023-02-02T23:20:50.775Z,1.80
2023-02-02T23:23:17.876Z,1.77
2023-02-02T23:25:44.899Z,2.20
2023-02-02T23:28:13.068Z,2.10
2023-02-02T23:30:40.274Z,1.87
2023-02-02T23:33:07.389Z,1.97
2023-02-02T23:35:34.707Z,2.10
2023-02-02T23:38:01.880Z,1.80
2023-02-02T23:40:29.156Z,1.90
2023-02-02T23:42:56.381Z,2.10
2023-02-02T23:45:23.576Z,2.17
2023-02-02T23:47:50.636Z,2.13
2023-02-02T23:50:17.758Z,2.40
2023-02-02T23:52:44.846Z,2.20
2023-02-02T23:55:12.044Z,2.20
2023-02-02T23:57:39.330Z,2.27
